sensor_id;sensor_type;location;lat;lon;timestamp;P1;durP1;ratioP1;P2;durP2;ratioP2
11568;SDS011;5840;46.894;15.542;2023-06-10T00:02:01;10.60;;;9.70;;
11568;SDS011;5840;46.894;15.542;2023-06-10T00:04:29;11.07;;;10.17;;
11568;SDS011;5840;46.894;15.542;2023-06-10T00:06:56;11.30;;;10.50;;
11568;SDS011;5840;46.894;15.542;2023-06-10T00:09:25;10.80;;;9.97;;
11568;SDS011;5840;46.894;15.542;2023-06-10T00:11:53;10.93;;;10.10;;
11568;SDS011;5840;46.894;15.542;2023-06-10T00:14:20;11.23;;;10.33;;
11568;SDS011;5840;46.894;15.542;2023-06-10T00:16:48;11.13;;;10.33;;
11568;SDS011;5840;46.894;15.542;2023-06-10T00:19:15;10.50;;;9.80;;
11568;SDS011;5840;46.894;15.542;2023-06-10T00:21:43;10.43;;;9.63;;
11568;SDS011;5840;46.894;15.542;2023-06-10T00:24:10;9.87;;;8.97;;
11568;SDS011;5840;46.894;15.542;2023-06-10T00:26:39;10.00;;;9.20;;
11568;SDS011;5840;46.894;15.542;2023-06-10T00:29:06;9.67;;;8.97;;
11568;SDS011;5840;46.894;15.542;2023-06-10T00:31:34;10.83;;;9.83;;
11568;SDS011;5840;46.894;15.542;2023-06-10T00:34:01;10.13;;;9.43;;
11568;SDS011;5840;46.894;15.542;2023-06-10T00:36:28;10.57;;;9.87;;
11568;SDS011;5840;46.894;15.542;2023-06-10T00:38:55;9.97;;;9.27;;
11568;SDS011;5840;46.894;15.542;2023-06-10T00:41:22;11.30;;;10.37;;
11568;SDS011;5840;46.894;15.542;2023-06-10T00:43:50;12.00;;;10.70;;
11568;SDS011;5840;46.894;15.542;2023-06-10T00:46:17;10.77;;;9.97;;
11568;SDS011;5840;46.894;15.542;2023-06-10T00:48:45;10.03;;;9.33;;
11568;SDS011;5840;46.894;15.542;2023-06-10T00:51:12;10.00;;;9.17;;
11568;SDS011;5840;46.894;15.542;2023-06-10T00:53:40;10.50;;;9.70;;
11568;SDS011;5840;46.894;15.542;2023-06-10T00:56:07;11.50;;;10.40;;
11568;SDS011;5840;46.894;15.542;2023-06-10T00:58:34;9.50;;;8.83;;
11568;SDS011;5840;46.894;15.542;2023-06-10T01:01:03;10.90;;;9.90;;
11568;SDS011;5840;46.894;15.542;2023-06-10T01:03:30;10.57;;;9.50;;
11568;SDS011;5840;46.894;15.542;2023-06-10T01:06:03;10.37;;;9.63;;
11568;SDS011;5840;46.894;15.542;2023-06-10T01:08:39;11.10;;;10.27;;
11568;SDS011;5840;46.894;15.542;2023-06-10T01:11:12;10.00;;;9.30;;
11568;SDS011;5840;46.894;15.542;2023-06-10T01:13:45;9.93;;;9.13;;
11568;SDS011;5840;46.894;15.542;2023-06-10T01:16:17;9.67;;;8.87;;
11568;SDS011;5840;46.894;15.542;2023-06-10T01:18:46;9.80;;;9.10;;
11568;SDS011;5840;46.894;15.542;2023-06-10T01:21:16;10.30;;;9.50;;
11568;SDS011;5840;46.894;15.542;2023-06-10T01:23:45;9.77;;;9.07;;
11568;SDS011;5840;46.894;15.542;2023-06-10T01:26:12;10.13;;;9.33;;
11568;SDS011;5840;46.894;15.542;2023-06-10T01:28:43;10.03;;;9.20;;
11568;SDS011;5840;46.894;15.542;2023-06-10T01:31:15;10.00;;;9.30;;
11568;SDS011;5840;46.894;15.542;2023-06-10T01:33:47;10.00;;;9.30;;
11568;SDS011;5840;46.894;15.542;2023-06-10T01:36:19;10.30;;;9.60;;
11568;SDS011;5840;46.894;15.542;2023-06-10T01:38:48;11.20;;;10.30;;
11568;SDS011;5840;46.894;15.542;2023-06-10T01:41:17;10.30;;;9.60;;
11568;SDS011;5840;46.894;15.542;2023-06-10T01:43:46;11.20;;;10.30;;
11568;SDS011;5840;46.894;15.542;2023-06-10T01:46:14;10.83;;;10.03;;
11568;SDS011;5840;46.894;15.542;2023-06-10T01:48:44;11.90;;;10.90;;
11568;SDS011;5840;46.894;15.542;2023-06-10T01:51:11;10.67;;;9.87;;
11568;SDS011;5840;46.894;15.542;2023-06-10T01:53:39;10.43;;;9.70;;
11568;SDS011;5840;46.894;15.542;2023-06-10T01:56:06;10.47;;;9.67;;
11568;SDS011;5840;46.894;15.542;2023-06-10T01:58:33;10.43;;;9.53;;
11568;SDS011;5840;46.894;15.542;2023-06-10T02:01:00;9.80;;;9.13;;
11568;SDS011;5840;46.894;15.542;2023-06-10T02:03:27;10.63;;;9.90;;
11568;SDS011;5840;46.894;15.542;2023-06-10T02:05:54;10.70;;;9.80;;
11568;SDS011;5840;46.894;15.542;2023-06-10T02:08:21;10.73;;;9.93;;
11568;SDS011;5840;46.894;15.542;2023-06-10T02:10:49;10.20;;;9.50;;
11568;SDS011;5840;46.894;15.542;2023-06-10T02:13:16;11.03;;;10.13;;
11568;SDS011;5840;46.894;15.542;2023-06-10T02:15:43;10.50;;;9.63;;
11568;SDS011;5840;46.894;15.542;2023-06-10T02:18:10;10.50;;;9.67;;
11568;SDS011;5840;46.894;15.542;2023-06-10T02:20:37;10.93;;;10.03;;
11568;SDS011;5840;46.894;15.542;2023-06-10T02:23:04;10.47;;;9.67;;
11568;SDS011;5840;46.894;15.542;2023-06-10T02:25:31;10.07;;;9.17;;
11568;SDS011;5840;46.894;15.542;2023-06-10T02:28:00;10.47;;;9.77;;
11568;SDS011;5840;46.894;15.542;2023-06-10T02:30:28;10.93;;;10.03;;
11568;SDS011;5840;46.894;15.542;2023-06-10T02:32:55;10.57;;;9.77;;
11568;SDS011;5840;46.894;15.542;2023-06-10T02:35:22;10.67;;;9.87;;
11568;SDS011;5840;46.894;15.542;2023-06-10T02:37:49;10.53;;;9.80;;
11568;SDS011;5840;46.894;15.542;2023-06-10T02:40:16;11.43;;;10.43;;
11568;SDS011;5840;46.894;15.542;2023-06-10T02:42:43;10.87;;;9.97;;
11568;SDS011;5840;46.894;15.542;2023-06-10T02:45:11;10.20;;;9.40;;
11568;SDS011;5840;46.894;15.542;2023-06-10T02:47:38;10.87;;;10.10;;
11568;SDS011;5840;46.894;15.542;2023-06-10T02:50:06;10.77;;;9.97;;
11568;SDS011;5840;46.894;15.542;2023-06-10T02:52:33;10.27;;;9.57;;
11568;SDS011;5840;46.894;15.542;2023-06-10T02:55:00;9.80;;;9.10;;
11568;SDS011;5840;46.894;15.542;2023-06-10T02:57:26;11.27;;;10.37;;
11568;SDS011;5840;46.894;15.542;2023-06-10T02:59:53;10.23;;;9.53;;
11568;SDS011;5840;46.894;15.542;2023-06-10T03:02:22;10.73;;;9.93;;
11568;SDS011;5840;46.894;15.542;2023-06-10T03:04:53;12.90;;;11.80;;
11568;SDS011;5840;46.894;15.542;2023-06-10T03:07:20;11.07;;;10.27;;
11568;SDS011;5840;46.894;15.542;2023-06-10T03:09:48;11.53;;;10.63;;
11568;SDS011;5840;46.894;15.542;2023-06-10T03:12:15;11.77;;;10.77;;
11568;SDS011;5840;46.894;15.542;2023-06-10T03:14:42;11.10;;;10.20;;
11568;SDS011;5840;46.894;15.542;2023-06-10T03:17:09;11.40;;;10.50;;
11568;SDS011;5840;46.894;15.542;2023-06-10T03:19:37;12.03;;;11.03;;
11568;SDS011;5840;46.894;15.542;2023-06-10T03:22:07;12.70;;;11.60;;
11568;SDS011;5840;46.894;15.542;2023-06-10T03:24:35;11.73;;;10.83;;
11568;SDS011;5840;46.894;15.542;2023-06-10T03:27:05;11.63;;;10.57;;
11568;SDS011;5840;46.894;15.542;2023-06-10T03:29:32;12.10;;;11.10;;
11568;SDS011;5840;46.894;15.542;2023-06-10T03:31:59;13.77;;;12.37;;
11568;SDS011;5840;46.894;15.542;2023-06-10T03:34:26;13.00;;;12.00;;
11568;SDS011;5840;46.894;15.542;2023-06-10T03:36:56;12.57;;;11.37;;
11568;SDS011;5840;46.894;15.542;2023-06-10T03:39:23;11.97;;;10.83;;
11568;SDS011;5840;46.894;15.542;2023-06-10T03:41:50;11.37;;;10.37;;
11568;SDS011;5840;46.894;15.542;2023-06-10T03:44:17;12.90;;;11.90;;
11568;SDS011;5840;46.894;15.542;2023-06-10T03:46:44;11.83;;;10.93;;
11568;SDS011;5840;46.894;15.542;2023-06-10T03:49:12;12.27;;;11.20;;
11568;SDS011;5840;46.894;15.542;2023-06-10T03:51:40;12.20;;;11.03;;
11568;SDS011;5840;46.894;15.542;2023-06-10T03:54:08;11.57;;;10.67;;
11568;SDS011;5840;46.894;15.542;2023-06-10T03:56:35;11.40;;;10.47;;
11568;SDS011;5840;46.894;15.542;2023-06-10T03:59:02;13.67;;;12.33;;
11568;SDS011;5840;46.894;15.542;2023-06-10T04:01:30;14.47;;;12.23;;
11568;SDS011;5840;46.894;15.542;2023-06-10T04:03:58;14.13;;;12.00;;
11568;SDS011;5840;46.894;15.542;2023-06-10T04:06:26;13.30;;;11.97;;
11568;SDS011;5840;46.894;15.542;2023-06-10T04:08:54;12.37;;;11.47;;
11568;SDS011;5840;46.894;15.542;2023-06-10T04:11:23;12.40;;;11.40;;
11568;SDS011;5840;46.894;15.542;2023-06-10T04:13:50;11.83;;;10.93;;
11568;SDS011;5840;46.894;15.542;2023-06-10T04:16:17;11.80;;;10.80;;
11568;SDS011;5840;46.894;15.542;2023-06-10T04:18:44;11.20;;;10.20;;
11568;SDS011;5840;46.894;15.542;2023-06-10T04:21:11;12.03;;;10.90;;
11568;SDS011;5840;46.894;15.542;2023-06-10T04:23:37;13.17;;;12.20;;
11568;SDS011;5840;46.894;15.542;2023-06-10T04:26:04;12.33;;;11.23;;
11568;SDS011;5840;46.894;15.542;2023-06-10T04:28:33;12.10;;;11.17;;
11568;SDS011;5840;46.894;15.542;2023-06-10T04:31:01;12.43;;;10.57;;
11568;SDS011;5840;46.894;15.542;2023-06-10T04:33:29;11.63;;;10.40;;
11568;SDS011;5840;46.894;15.542;2023-06-10T04:35:56;11.40;;;10.43;;
11568;SDS011;5840;46.894;15.542;2023-06-10T04:38:23;11.83;;;10.43;;
11568;SDS011;5840;46.894;15.542;2023-06-10T04:40:50;11.37;;;10.47;;
11568;SDS011;5840;46.894;15.542;2023-06-10T04:43:16;10.27;;;9.47;;
11568;SDS011;5840;46.894;15.542;2023-06-10T04:45:45;12.23;;;11.30;;
11568;SDS011;5840;46.894;15.542;2023-06-10T04:48:12;11.00;;;10.07;;
11568;SDS011;5840;46.894;15.542;2023-06-10T04:50:39;12.60;;;11.47;;
11568;SDS011;5840;46.894;15.542;2023-06-10T04:53:06;10.80;;;10.00;;
11568;SDS011;5840;46.894;15.542;2023-06-10T04:55:33;11.20;;;10.40;;
11568;SDS011;5840;46.894;15.542;2023-06-10T04:58:01;10.27;;;9.53;;
11568;SDS011;5840;46.894;15.542;2023-06-10T05:00:28;10.30;;;9.50;;
11568;SDS011;5840;46.894;15.542;2023-06-10T05:02:56;9.97;;;9.27;;
11568;SDS011;5840;46.894;15.542;2023-06-10T05:05:23;10.33;;;9.60;;
11568;SDS011;5840;46.894;15.542;2023-06-10T05:07:50;10.87;;;9.97;;
11568;SDS011;5840;46.894;15.542;2023-06-10T05:10:17;11.00;;;10.13;;
11568;SDS011;5840;46.894;15.542;2023-06-10T05:12:45;10.60;;;9.77;;
11568;SDS011;5840;46.894;15.542;2023-06-10T05:15:12;9.57;;;8.87;;
11568;SDS011;5840;46.894;15.542;2023-06-10T05:17:39;11.43;;;10.50;;
11568;SDS011;5840;46.894;15.542;2023-06-10T05:20:07;9.70;;;9.00;;
11568;SDS011;5840;46.894;15.542;2023-06-10T05:22:35;9.13;;;8.53;;
11568;SDS011;5840;46.894;15.542;2023-06-10T05:25:03;8.47;;;7.97;;
11568;SDS011;5840;46.894;15.542;2023-06-10T05:27:30;8.97;;;8.27;;
11568;SDS011;5840;46.894;15.542;2023-06-10T05:29:57;9.43;;;8.70;;
11568;SDS011;5840;46.894;15.542;2023-06-10T05:32:24;9.63;;;8.97;;
11568;SDS011;5840;46.894;15.542;2023-06-10T05:34:51;13.00;;;11.90;;
11568;SDS011;5840;46.894;15.542;2023-06-10T05:37:19;20.17;;;13.43;;
11568;SDS011;5840;46.894;15.542;2023-06-10T05:39:46;24.40;;;14.03;;
11568;SDS011;5840;46.894;15.542;2023-06-10T05:42:13;14.33;;;13.00;;
11568;SDS011;5840;46.894;15.542;2023-06-10T05:44:40;14.50;;;13.40;;
11568;SDS011;5840;46.894;15.542;2023-06-10T05:47:07;14.57;;;13.23;;
11568;SDS011;5840;46.894;15.542;2023-06-10T05:49:34;15.50;;;14.00;;
11568;SDS011;5840;46.894;15.542;2023-06-10T05:52:00;25.60;;;14.70;;
11568;SDS011;5840;46.894;15.542;2023-06-10T05:54:29;14.67;;;13.53;;
11568;SDS011;5840;46.894;15.542;2023-06-10T05:56:56;15.27;;;13.80;;
11568;SDS011;5840;46.894;15.542;2023-06-10T05:59:23;15.23;;;13.67;;
11568;SDS011;5840;46.894;15.542;2023-06-10T06:01:49;15.93;;;14.43;;
11568;SDS011;5840;46.894;15.542;2023-06-10T06:04:16;14.97;;;13.73;;
11568;SDS011;5840;46.894;15.542;2023-06-10T06:06:43;16.17;;;14.67;;
11568;SDS011;5840;46.894;15.542;2023-06-10T06:09:10;14.73;;;13.33;;
11568;SDS011;5840;46.894;15.542;2023-06-10T06:11:39;16.03;;;14.67;;
11568;SDS011;5840;46.894;15.542;2023-06-10T06:14:06;16.20;;;14.80;;
11568;SDS011;5840;46.894;15.542;2023-06-10T06:16:33;16.33;;;14.90;;
11568;SDS011;5840;46.894;15.542;2023-06-10T06:19:00;19.53;;;14.97;;
11568;SDS011;5840;46.894;15.542;2023-06-10T06:21:27;15.63;;;14.33;;
11568;SDS011;5840;46.894;15.542;2023-06-10T06:23:53;16.00;;;14.60;;
11568;SDS011;5840;46.894;15.542;2023-06-10T06:26:20;16.27;;;14.97;;
11568;SDS011;5840;46.894;15.542;2023-06-10T06:28:49;14.93;;;13.73;;
11568;SDS011;5840;46.894;15.542;2023-06-10T06:31:16;15.20;;;14.00;;
11568;SDS011;5840;46.894;15.542;2023-06-10T06:33:43;16.83;;;15.23;;
11568;SDS011;5840;46.894;15.542;2023-06-10T06:36:10;15.47;;;14.27;;
11568;SDS011;5840;46.894;15.542;2023-06-10T06:38:36;13.60;;;12.50;;
11568;SDS011;5840;46.894;15.542;2023-06-10T06:41:03;13.73;;;12.73;;
11568;SDS011;5840;46.894;15.542;2023-06-10T06:43:31;14.13;;;12.93;;
11568;SDS011;5840;46.894;15.542;2023-06-10T06:46:00;14.80;;;13.70;;
11568;SDS011;5840;46.894;15.542;2023-06-10T06:48:26;15.13;;;14.03;;
11568;SDS011;5840;46.894;15.542;2023-06-10T06:50:54;15.87;;;14.57;;
11568;SDS011;5840;46.894;15.542;2023-06-10T06:53:23;15.03;;;13.87;;
11568;SDS011;5840;46.894;15.542;2023-06-10T06:55:50;15.70;;;14.50;;
11568;SDS011;5840;46.894;15.542;2023-06-10T06:58:17;13.10;;;12.20;;
11568;SDS011;5840;46.894;15.542;2023-06-10T07:00:43;14.00;;;12.90;;
11568;SDS011;5840;46.894;15.542;2023-06-10T07:03:12;14.20;;;13.10;;
11568;SDS011;5840;46.894;15.542;2023-06-10T07:05:39;14.30;;;13.23;;
11568;SDS011;5840;46.894;15.542;2023-06-10T07:08:05;14.13;;;13.07;;
11568;SDS011;5840;46.894;15.542;2023-06-10T07:10:32;15.20;;;13.77;;
11568;SDS011;5840;46.894;15.542;2023-06-10T07:12:59;13.80;;;12.80;;
11568;SDS011;5840;46.894;15.542;2023-06-10T07:15:26;14.97;;;13.77;;
11568;SDS011;5840;46.894;15.542;2023-06-10T07:17:53;14.30;;;13.20;;
11568;SDS011;5840;46.894;15.542;2023-06-10T07:20:21;13.67;;;12.67;;
11568;SDS011;5840;46.894;15.542;2023-06-10T07:22:48;13.63;;;12.53;;
11568;SDS011;5840;46.894;15.542;2023-06-10T07:25:15;13.33;;;12.33;;
11568;SDS011;5840;46.894;15.542;2023-06-10T07:27:42;13.63;;;12.63;;
11568;SDS011;5840;46.894;15.542;2023-06-10T07:30:09;13.17;;;12.17;;
11568;SDS011;5840;46.894;15.542;2023-06-10T07:32:37;13.93;;;12.80;;
11568;SDS011;5840;46.894;15.542;2023-06-10T07:35:06;12.77;;;11.80;;
11568;SDS011;5840;46.894;15.542;2023-06-10T07:37:36;12.57;;;11.67;;
11568;SDS011;5840;46.894;15.542;2023-06-10T07:40:03;13.43;;;12.23;;
11568;SDS011;5840;46.894;15.542;2023-06-10T07:42:31;13.07;;;12.00;;
11568;SDS011;5840;46.894;15.542;2023-06-10T07:44:58;12.73;;;11.83;;
11568;SDS011;5840;46.894;15.542;2023-06-10T07:47:25;13.60;;;12.50;;
11568;SDS011;5840;46.894;15.542;2023-06-10T07:49:52;12.93;;;11.93;;
11568;SDS011;5840;46.894;15.542;2023-06-10T07:52:19;11.20;;;10.40;;
11568;SDS011;5840;46.894;15.542;2023-06-10T07:54:47;12.00;;;11.10;;
11568;SDS011;5840;46.894;15.542;2023-06-10T07:57:14;12.77;;;11.80;;
11568;SDS011;5840;46.894;15.542;2023-06-10T07:59:41;12.50;;;11.50;;
11568;SDS011;5840;46.894;15.542;2023-06-10T08:02:09;11.80;;;10.90;;
11568;SDS011;5840;46.894;15.542;2023-06-10T08:04:36;12.47;;;11.53;;
11568;SDS011;5840;46.894;15.542;2023-06-10T08:07:03;11.73;;;10.93;;
11568;SDS011;5840;46.894;15.542;2023-06-10T08:09:30;12.10;;;11.10;;
11568;SDS011;5840;46.894;15.542;2023-06-10T08:11:58;11.33;;;10.30;;
11568;SDS011;5840;46.894;15.542;2023-06-10T08:14:25;11.87;;;11.07;;
11568;SDS011;5840;46.894;15.542;2023-06-10T08:16:52;9.77;;;9.17;;
11568;SDS011;5840;46.894;15.542;2023-06-10T08:19:19;9.20;;;8.50;;
11568;SDS011;5840;46.894;15.542;2023-06-10T08:21:46;9.57;;;8.93;;
11568;SDS011;5840;46.894;15.542;2023-06-10T08:24:13;10.80;;;10.00;;
11568;SDS011;5840;46.894;15.542;2023-06-10T08:26:41;9.40;;;8.70;;
11568;SDS011;5840;46.894;15.542;2023-06-10T08:29:11;9.40;;;8.73;;
11568;SDS011;5840;46.894;15.542;2023-06-10T08:31:40;8.50;;;8.00;;
11568;SDS011;5840;46.894;15.542;2023-06-10T08:34:07;8.83;;;8.23;;
11568;SDS011;5840;46.894;15.542;2023-06-10T08:36:34;7.57;;;6.97;;
11568;SDS011;5840;46.894;15.542;2023-06-10T08:39:02;8.00;;;7.40;;
11568;SDS011;5840;46.894;15.542;2023-06-10T08:41:29;7.63;;;7.03;;
11568;SDS011;5840;46.894;15.542;2023-06-10T08:44:03;7.33;;;6.80;;
11568;SDS011;5840;46.894;15.542;2023-06-10T08:46:38;7.87;;;7.37;;
11568;SDS011;5840;46.894;15.542;2023-06-10T08:49:08;7.20;;;6.70;;
11568;SDS011;5840;46.894;15.542;2023-06-10T08:51:36;6.63;;;6.20;;
11568;SDS011;5840;46.894;15.542;2023-06-10T08:54:05;7.27;;;6.77;;
11568;SDS011;5840;46.894;15.542;2023-06-10T08:56:39;7.57;;;6.97;;
11568;SDS011;5840;46.894;15.542;2023-06-10T08:59:06;7.10;;;6.60;;
11568;SDS011;5840;46.894;15.542;2023-06-10T09:01:36;7.73;;;7.23;;
11568;SDS011;5840;46.894;15.542;2023-06-10T09:04:04;7.43;;;6.93;;
11568;SDS011;5840;46.894;15.542;2023-06-10T09:06:31;7.50;;;7.00;;
11568;SDS011;5840;46.894;15.542;2023-06-10T09:08:59;7.57;;;6.97;;
11568;SDS011;5840;46.894;15.542;2023-06-10T09:11:26;7.37;;;6.87;;
11568;SDS011;5840;46.894;15.542;2023-06-10T09:13:53;8.27;;;7.67;;
11568;SDS011;5840;46.894;15.542;2023-06-10T09:16:21;8.53;;;7.83;;
11568;SDS011;5840;46.894;15.542;2023-06-10T09:18:48;8.67;;;8.07;;
11568;SDS011;5840;46.894;15.542;2023-06-10T09:21:20;9.10;;;8.40;;
11568;SDS011;5840;46.894;15.542;2023-06-10T09:23:47;8.37;;;7.77;;
11568;SDS011;5840;46.894;15.542;2023-06-10T09:26:14;8.53;;;7.90;;
11568;SDS011;5840;46.894;15.542;2023-06-10T09:28:41;8.33;;;7.73;;
11568;SDS011;5840;46.894;15.542;2023-06-10T09:31:10;8.20;;;7.60;;
11568;SDS011;5840;46.894;15.542;2023-06-10T09:33:40;7.63;;;7.13;;
11568;SDS011;5840;46.894;15.542;2023-06-10T09:36:07;9.00;;;8.40;;
11568;SDS011;5840;46.894;15.542;2023-06-10T09:38:34;9.63;;;8.83;;
11568;SDS011;5840;46.894;15.542;2023-06-10T09:41:02;9.47;;;8.60;;
11568;SDS011;5840;46.894;15.542;2023-06-10T09:43:39;8.80;;;8.07;;
11568;SDS011;5840;46.894;15.542;2023-06-10T09:46:13;8.70;;;8.00;;
11568;SDS011;5840;46.894;15.542;2023-06-10T09:48:43;8.67;;;8.07;;
11568;SDS011;5840;46.894;15.542;2023-06-10T09:51:11;7.20;;;6.73;;
11568;SDS011;5840;46.894;15.542;2023-06-10T09:53:38;8.23;;;7.63;;
11568;SDS011;5840;46.894;15.542;2023-06-10T09:56:06;8.10;;;7.50;;
11568;SDS011;5840;46.894;15.542;2023-06-10T09:58:36;7.70;;;7.13;;
11568;SDS011;5840;46.894;15.542;2023-06-10T10:01:04;8.00;;;7.50;;
11568;SDS011;5840;46.894;15.542;2023-06-10T10:03:31;7.33;;;6.63;;
11568;SDS011;5840;46.894;15.542;2023-06-10T10:06:00;7.83;;;7.23;;
11568;SDS011;5840;46.894;15.542;2023-06-10T10:08:27;7.67;;;7.17;;
11568;SDS011;5840;46.894;15.542;2023-06-10T10:10:55;8.07;;;7.53;;
11568;SDS011;5840;46.894;15.542;2023-06-10T10:13:25;7.80;;;7.30;;
11568;SDS011;5840;46.894;15.542;2023-06-10T10:15:54;7.47;;;6.97;;
11568;SDS011;5840;46.894;15.542;2023-06-10T10:18:25;8.07;;;7.57;;
11568;SDS011;5840;46.894;15.542;2023-06-10T10:20:56;7.80;;;7.30;;
11568;SDS011;5840;46.894;15.542;2023-06-10T10:23:29;8.13;;;7.57;;
11568;SDS011;5840;46.894;15.542;2023-06-10T10:25:58;7.83;;;7.33;;
11568;SDS011;5840;46.894;15.542;2023-06-10T10:28:29;7.23;;;6.63;;
11568;SDS011;5840;46.894;15.542;2023-06-10T10:31:05;7.23;;;6.73;;
11568;SDS011;5840;46.894;15.542;2023-06-10T10:33:40;7.10;;;6.60;;
11568;SDS011;5840;46.894;15.542;2023-06-10T10:36:11;7.00;;;6.50;;
11568;SDS011;5840;46.894;15.542;2023-06-10T10:38:41;6.80;;;6.40;;
11568;SDS011;5840;46.894;15.542;2023-06-10T10:41:09;6.73;;;6.33;;
11568;SDS011;5840;46.894;15.542;2023-06-10T10:43:36;6.90;;;6.40;;
11568;SDS011;5840;46.894;15.542;2023-06-10T10:46:11;6.73;;;6.33;;
11568;SDS011;5840;46.894;15.542;2023-06-10T10:48:39;6.93;;;6.33;;
11568;SDS011;5840;46.894;15.542;2023-06-10T10:51:07;7.27;;;6.67;;
11568;SDS011;5840;46.894;15.542;2023-06-10T10:53:34;6.67;;;6.17;;
11568;SDS011;5840;46.894;15.542;2023-06-10T10:56:06;6.20;;;5.80;;
11568;SDS011;5840;46.894;15.542;2023-06-10T10:58:33;6.60;;;6.20;;
11568;SDS011;5840;46.894;15.542;2023-06-10T11:01:09;7.00;;;6.50;;
11568;SDS011;5840;46.894;15.542;2023-06-10T11:03:42;6.50;;;5.87;;
11568;SDS011;5840;46.894;15.542;2023-06-10T11:06:12;6.87;;;6.40;;
11568;SDS011;5840;46.894;15.542;2023-06-10T11:08:50;6.17;;;5.77;;
11568;SDS011;5840;46.894;15.542;2023-06-10T11:11:19;6.43;;;5.93;;
11568;SDS011;5840;46.894;15.542;2023-06-10T11:14:04;6.17;;;5.77;;
11568;SDS011;5840;46.894;15.542;2023-06-10T11:16:38;6.10;;;5.70;;
11568;SDS011;5840;46.894;15.542;2023-06-10T11:19:07;6.50;;;6.10;;
11568;SDS011;5840;46.894;15.542;2023-06-10T11:21:37;6.33;;;5.80;;
11568;SDS011;5840;46.894;15.542;2023-06-10T11:24:24;6.80;;;6.30;;
11568;SDS011;5840;46.894;15.542;2023-06-10T11:26:52;6.50;;;6.00;;
11568;SDS011;5840;46.894;15.542;2023-06-10T11:29:19;6.50;;;6.00;;
11568;SDS011;5840;46.894;15.542;2023-06-10T11:31:49;6.27;;;5.87;;
11568;SDS011;5840;46.894;15.542;2023-06-10T11:34:23;6.60;;;6.10;;
11568;SDS011;5840;46.894;15.542;2023-06-10T11:36:52;6.20;;;5.80;;
11568;SDS011;5840;46.894;15.542;2023-06-10T11:39:20;6.47;;;6.07;;
11568;SDS011;5840;46.894;15.542;2023-06-10T11:41:53;6.10;;;5.60;;
11568;SDS011;5840;46.894;15.542;2023-06-10T11:44:20;5.83;;;5.53;;
11568;SDS011;5840;46.894;15.542;2023-06-10T11:46:48;6.10;;;5.80;;
11568;SDS011;5840;46.894;15.542;2023-06-10T11:49:16;5.80;;;5.50;;
11568;SDS011;5840;46.894;15.542;2023-06-10T11:51:43;6.37;;;5.87;;
11568;SDS011;5840;46.894;15.542;2023-06-10T11:54:14;6.40;;;5.93;;
11568;SDS011;5840;46.894;15.542;2023-06-10T11:56:42;6.30;;;5.90;;
11568;SDS011;5840;46.894;15.542;2023-06-10T11:59:11;5.97;;;5.63;;
11568;SDS011;5840;46.894;15.542;2023-06-10T12:01:39;6.23;;;5.83;;
11568;SDS011;5840;46.894;15.542;2023-06-10T12:04:10;6.70;;;6.17;;
11568;SDS011;5840;46.894;15.542;2023-06-10T12:06:38;5.53;;;5.23;;
11568;SDS011;5840;46.894;15.542;2023-06-10T12:09:07;5.50;;;5.20;;
11568;SDS011;5840;46.894;15.542;2023-06-10T12:11:39;6.03;;;5.60;;
11568;SDS011;5840;46.894;15.542;2023-06-10T12:14:06;5.80;;;5.40;;
11568;SDS011;5840;46.894;15.542;2023-06-10T12:16:34;5.97;;;5.57;;
11568;SDS011;5840;46.894;15.542;2023-06-10T12:19:02;6.03;;;5.60;;
11568;SDS011;5840;46.894;15.542;2023-06-10T12:21:31;5.80;;;5.40;;
11568;SDS011;5840;46.894;15.542;2023-06-10T12:24:03;5.20;;;4.80;;
11568;SDS011;5840;46.894;15.542;2023-06-10T12:26:37;5.80;;;5.40;;
11568;SDS011;5840;46.894;15.542;2023-06-10T12:29:15;6.00;;;5.70;;
11568;SDS011;5840;46.894;15.542;2023-06-10T12:31:55;5.93;;;5.43;;
11568;SDS011;5840;46.894;15.542;2023-06-10T12:34:34;5.30;;;4.90;;
11568;SDS011;5840;46.894;15.542;2023-06-10T12:37:03;5.03;;;4.73;;
11568;SDS011;5840;46.894;15.542;2023-06-10T12:39:31;5.87;;;5.37;;
11568;SDS011;5840;46.894;15.542;2023-06-10T12:41:59;5.80;;;5.40;;
11568;SDS011;5840;46.894;15.542;2023-06-10T12:44:30;5.60;;;5.30;;
11568;SDS011;5840;46.894;15.542;2023-06-10T12:47:06;5.30;;;4.97;;
11568;SDS011;5840;46.894;15.542;2023-06-10T12:49:35;5.80;;;5.40;;
11568;SDS011;5840;46.894;15.542;2023-06-10T12:52:02;5.13;;;4.83;;
11568;SDS011;5840;46.894;15.542;2023-06-10T12:54:30;5.90;;;5.50;;
11568;SDS011;5840;46.894;15.542;2023-06-10T12:56:57;5.83;;;5.43;;
11568;SDS011;5840;46.894;15.542;2023-06-10T12:59:24;5.47;;;5.03;;
11568;SDS011;5840;46.894;15.542;2023-06-10T13:01:50;5.37;;;5.07;;
11568;SDS011;5840;46.894;15.542;2023-06-10T13:04:19;5.50;;;5.20;;
11568;SDS011;5840;46.894;15.542;2023-06-10T13:06:47;5.00;;;4.70;;
11568;SDS011;5840;46.894;15.542;2023-06-10T13:09:14;6.07;;;5.43;;
11568;SDS011;5840;46.894;15.542;2023-06-10T13:11:41;5.33;;;5.03;;
11568;SDS011;5840;46.894;15.542;2023-06-10T13:14:09;5.70;;;5.40;;
11568;SDS011;5840;46.894;15.542;2023-06-10T13:16:36;4.77;;;4.47;;
11568;SDS011;5840;46.894;15.542;2023-06-10T13:19:04;5.10;;;4.80;;
11568;SDS011;5840;46.894;15.542;2023-06-10T13:21:33;5.57;;;5.23;;
11568;SDS011;5840;46.894;15.542;2023-06-10T13:24:00;5.83;;;5.43;;
11568;SDS011;5840;46.894;15.542;2023-06-10T13:26:28;5.73;;;5.33;;
11568;SDS011;5840;46.894;15.542;2023-06-10T13:28:55;5.80;;;5.40;;
11568;SDS011;5840;46.894;15.542;2023-06-10T13:31:22;5.57;;;5.27;;
11568;SDS011;5840;46.894;15.542;2023-06-10T13:33:50;6.20;;;5.80;;
11568;SDS011;5840;46.894;15.542;2023-06-10T13:36:17;5.60;;;5.20;;
11568;SDS011;5840;46.894;15.542;2023-06-10T13:38:45;5.20;;;4.90;;
11568;SDS011;5840;46.894;15.542;2023-06-10T13:41:12;6.23;;;5.70;;
11568;SDS011;5840;46.894;15.542;2023-06-10T13:43:39;6.00;;;5.60;;
11568;SDS011;5840;46.894;15.542;2023-06-10T13:46:07;5.93;;;5.53;;
11568;SDS011;5840;46.894;15.542;2023-06-10T13:48:34;6.77;;;6.30;;
11568;SDS011;5840;46.894;15.542;2023-06-10T13:51:01;6.40;;;6.00;;
11568;SDS011;5840;46.894;15.542;2023-06-10T13:53:28;6.40;;;6.00;;
11568;SDS011;5840;46.894;15.542;2023-06-10T13:55:56;6.87;;;6.47;;
11568;SDS011;5840;46.894;15.542;2023-06-10T13:58:23;6.77;;;6.20;;
11568;SDS011;5840;46.894;15.542;2023-06-10T14:00:50;6.60;;;6.17;;
11568;SDS011;5840;46.894;15.542;2023-06-10T14:03:18;6.70;;;6.10;;
11568;SDS011;5840;46.894;15.542;2023-06-10T14:05:45;6.63;;;6.13;;
11568;SDS011;5840;46.894;15.542;2023-06-10T14:08:11;7.17;;;6.60;;
11568;SDS011;5840;46.894;15.542;2023-06-10T14:10:39;7.00;;;6.50;;
11568;SDS011;5840;46.894;15.542;2023-06-10T14:13:07;7.13;;;6.73;;
11568;SDS011;5840;46.894;15.542;2023-06-10T14:15:34;7.40;;;6.90;;
11568;SDS011;5840;46.894;15.542;2023-06-10T14:18:01;7.50;;;7.00;;
11568;SDS011;5840;46.894;15.542;2023-06-10T14:20:28;7.70;;;7.00;;
11568;SDS011;5840;46.894;15.542;2023-06-10T14:22:56;7.53;;;7.03;;
11568;SDS011;5840;46.894;15.542;2023-06-10T14:25:24;7.40;;;6.90;;
11568;SDS011;5840;46.894;15.542;2023-06-10T14:27:51;7.53;;;6.93;;
11568;SDS011;5840;46.894;15.542;2023-06-10T14:30:19;8.43;;;7.83;;
11568;SDS011;5840;46.894;15.542;2023-06-10T14:32:46;8.30;;;7.70;;
11568;SDS011;5840;46.894;15.542;2023-06-10T14:35:13;8.13;;;7.57;;
11568;SDS011;5840;46.894;15.542;2023-06-10T14:37:40;7.60;;;6.90;;
11568;SDS011;5840;46.894;15.542;2023-06-10T14:40:07;8.07;;;7.47;;
11568;SDS011;5840;46.894;15.542;2023-06-10T14:42:35;8.77;;;7.97;;